Strona główna
METAR-TAF:

METAR-TAF

Lotnisko :

Port lotniczy Lima-Jorge Chávez

Lima, Peru

Szerokość geograficzna: 12-00S, Długość geograficzna: 077-07W, wysokość: 12 m

Aktualna obserwacja pogody

Raport powstał 39 minut temu, godzina 12:00 UTC
Wiatr 8 kt od południe
Temperatura 15°C
Wilgotność 94%
Ciśnienie 1017 hPa
Widzialność: 8000 m
Zachmurzenie całkowite na wysokości 800 ft

METAR: SPJC 181200Z 17008KT 8000 OVC008 15/14 Q1017 NOSIG RMK PP000

czas: 07:39 (12:39 UTC)

Prognoza

Raport powstał 1 godzina i 39 minut temu, godzina 11:00 UTC
Prognoza ważna od 18 godzina 12 UTC do 19 godzina 12 UTC
Wiatr 8 kt od południe
Widzialność 10 km lub więcej
Zachmurzenie całkowite na wysokości 1000 ft
Stopniowe zmiany
od 18 godzina 14 UTC do 18 godzina 16 UTC
Zachmurzenie całkowite na wysokości 1500 ft
Od 18 godzina 1900 UTC
Wiatr 10 kt od południe
Widzialność 10 km lub więcej
Przerywane chmury na wysokości 2000 ft
Zachmurzenie całkowite na wysokości 1000 ft
Stopniowe zmiany
od 18 godzina 14 UTC do 18 godzina 16 UTC
Przerywane chmury na wysokości 1700 ft
Od 18 godzina 1900 UTC
Wiatr 15 kt od południe
Widzialność 10 km lub więcej
Brak chmur poniżej 1500 m i brak chmur cumulonimbus
Od 19 godzina 0600 UTC
Wiatr 10 kt od południe
Widzialność 10 km lub więcej
Zachmurzenie całkowite na wysokości 1200 ft

TAF: SPJC 181100Z 1812/1912 17008KT 9999 OVC010 TX19/1818Z TN15/1911Z BECMG 1814/1816 OVC015 FM181900 18014KT 9999 BKN020 FLVA0537 181130 GG TJSJYMYX 181130 SPIMYZYX FTPR93 SPIM 181100 SPHI 181100Z 1812/1912 18010KT 9999 OVC010 TX23/1819Z TN16/1911Z BECMG 1814/1816 BKN017 FM181900 19015KT CAVOK FM190600 18010KT 9999 OVC012

Obserwacja i prognoza pogody dla ponad 4000 lotnisk (raport METAR i TAF).

Dostępne stacje oznaczono żółtymi i czerwonymi punktami na mapie.

Najedź kursorem aby zobaczyć nazwę stacji.

Kliknij aby zobaczyć obserwacje i prognozy pogody.

Aby zmienić mapę: kliknij na zielony przycisk z czarnym krzyżykiem, aby powiększyć; na zielony przycisk z myślnikiem, aby pomniejszyć; na zielone strzałki, aby przejść do map sąsiednich.


METAR-TAF: